Startpagina
METAR-TAF:

METAR-TAF

Vliegvelden :

Vliegbasis Chièvres

Chièvres, België

breedte: 50-34N, lengte: 003-50E, hoogte: 60 m

METAR: ontbreekt

Tijdstip: 09:36 (07:36 UTC)

Verwachting

Dit bericht is 1 uur en het 55 minuten geleden gemaakt, om 05:41 UTC
Verwachting geldig van 22 om 07 UTC tot 22 om 16 UTC
Wind 7 kt uit het zuidwesten
Zicht 10 km of meer
Weinig wolken op 3000 ft
Gebroken wolken op 15000 ft
Kans 30% :
Tijdelijke
van 22 om 07 UTC tot 22 om 14 UTC
Zicht: 7000 m
Verspreide wolken op 2000 ft, Stapelwolken.
Gebroken wolken op 3000 ft
lichte regenbuien
Wijzigt naar
van 22 om 15 UTC tot 22 om 16 UTC
Wind 6 kt uit het westen
Zicht: 8000 m
Gebroken wolken op 5000 ft
lichte regen

TAF: EBCV 220541Z 2207/2216 23007KT 9999 FEW030 BKN150 PROB30 TEMPO 2207/2214 7000 -SHRA SCT020TCU BKN030 BECMG 2215/2216 26006KT 8000 -RA BKN050 BY EBWM

Waarnemingen en weersverwachtingen van meer dan 4000 vliegvelden (METAR en TAF).

De beschikbare stations zijn de gele en rode punten op de kaart.

Ga met uw muis naar het station om de naam te zien.

Klik dan om waarnemingen en weersverwachtingen te zien.

kaart wijzigen: klik op de groene knoppen met een zwart kruis om in te zoomen, op de groene knop met een streepje om uit te zoomen of op de groene pijlen voor aangrenzende kaarten.


METAR-TAF: